createdAt,value
2018-10-21T00:17:18.935Z,51.50
2018-10-21T00:30:26.206Z,51.70
2018-10-21T00:43:33.383Z,51.90
2018-10-21T00:56:40.550Z,51.80
2018-10-21T01:09:47.726Z,51.70
2018-10-21T01:22:54.918Z,51.70
2018-10-21T01:36:02.153Z,51.90
2018-10-21T01:49:09.339Z,52.00
2018-10-21T02:02:16.505Z,52.10
2018-10-21T02:28:26.291Z,52.00
2018-10-21T02:41:33.514Z,52.00
2018-10-21T02:54:40.669Z,52.10
2018-10-21T03:07:47.864Z,52.10
2018-10-21T03:20:55.062Z,52.10
2018-10-21T03:34:02.340Z,52.10
2018-10-21T03:47:09.437Z,52.00
2018-10-21T04:00:16.652Z,52.20
2018-10-21T04:13:23.846Z,52.40
2018-10-21T04:26:31.058Z,52.40
2018-10-21T04:39:38.212Z,52.40
2018-10-21T04:52:45.368Z,52.70
2018-10-21T05:05:52.526Z,52.90
2018-10-21T05:18:59.713Z,53.10
2018-10-21T05:32:06.884Z,53.20
2018-10-21T05:45:14.130Z,53.30
2018-10-21T05:58:21.443Z,53.50
2018-10-21T06:11:28.595Z,53.30
2018-10-21T06:24:35.812Z,53.00
2018-10-21T06:37:42.967Z,52.90
2018-10-21T06:50:50.144Z,52.90
2018-10-21T07:03:57.348Z,52.70
2018-10-21T07:43:09.851Z,57.30
2018-10-21T07:56:17.151Z,57.40
2018-10-21T08:09:24.350Z,57.30
2018-10-21T08:22:31.577Z,56.60
2018-10-21T08:48:41.537Z,56.20
2018-10-21T09:01:48.709Z,56.70
2018-10-21T09:14:55.895Z,55.80
2018-10-21T09:41:09.690Z,55.60
2018-10-21T09:54:16.878Z,55.60
2018-10-21T10:07:24.038Z,55.80
2018-10-21T10:20:31.225Z,56.30
2018-10-21T10:33:38.496Z,58.30
2018-10-21T10:46:45.650Z,58.10
2018-10-21T10:59:52.924Z,56.70
2018-10-21T11:13:00.040Z,54.40
2018-10-21T11:26:07.202Z,55.30
2018-10-21T11:39:14.390Z,55.50
2018-10-21T11:52:21.700Z,54.70
2018-10-21T12:05:28.764Z,54.50
2018-10-21T12:18:35.943Z,54.20
2018-10-21T12:31:43.099Z,54.40
2018-10-21T12:44:50.259Z,54.60
2018-10-21T12:57:57.475Z,54.40
2018-10-21T13:11:04.620Z,53.80
2018-10-21T13:24:11.782Z,52.90
2018-10-21T13:37:18.941Z,52.50
2018-10-21T13:50:26.095Z,52.60
2018-10-21T14:03:33.282Z,52.70
2018-10-21T14:16:40.511Z,52.80
2018-10-21T14:29:47.606Z,52.80
2018-10-21T14:42:54.823Z,52.90
2018-10-21T14:56:02.076Z,52.70
2018-10-21T15:09:09.287Z,52.80
2018-10-21T15:22:16.545Z,52.80
2018-10-21T15:35:23.654Z,52.90
2018-10-21T15:48:30.832Z,52.60
2018-10-21T16:01:38.058Z,52.50
2018-10-21T16:14:45.272Z,51.80
2018-10-21T16:27:52.517Z,51.50
2018-10-21T16:40:59.655Z,52.00
2018-10-21T16:54:06.906Z,52.20
2018-10-21T17:07:14.105Z,52.10
2018-10-21T17:20:21.353Z,51.80
2018-10-21T17:33:29.248Z,54.00
2018-10-21T17:46:36.532Z,55.40
2018-10-21T17:59:43.717Z,56.40
2018-10-21T18:12:50.950Z,57.20
2018-10-21T18:25:58.133Z,57.40
2018-10-21T18:39:05.349Z,57.80
2018-10-21T18:52:12.762Z,58.10
2018-10-21T19:05:19.943Z,58.00
2018-10-21T19:18:27.415Z,58.00
2018-10-21T19:31:34.614Z,58.00
2018-10-21T19:44:41.858Z,58.10
2018-10-21T19:57:49.034Z,58.10
2018-10-21T20:10:56.623Z,58.00
2018-10-21T20:24:03.810Z,56.00
2018-10-21T20:37:10.972Z,56.60
2018-10-21T20:50:18.226Z,56.80
2018-10-21T21:03:25.390Z,57.70
2018-10-21T21:16:32.974Z,57.90
2018-10-21T21:42:42.623Z,56.70
2018-10-21T21:55:49.784Z,56.50
2018-10-21T22:08:56.986Z,56.40
2018-10-21T22:35:06.693Z,56.20
2018-10-21T22:48:13.952Z,56.20
2018-10-21T23:27:25.699Z,56.10
2018-10-21T23:40:32.884Z,56.20
2018-10-21T23:53:40.023Z,56.20
